sensor_id;sensor_type;location;lat;lon;timestamp;pressure;altitude;pressure_sealevel;temperature;humidity
53526;BME280;40551;50.478;19.378;2023-07-28T00:03:01;97219.02;;;15.13;77.74
53526;BME280;40551;50.478;19.378;2023-07-28T00:05:37;97220.31;;;15.14;78.17
53526;BME280;40551;50.478;19.378;2023-07-28T00:08:11;97221.30;;;15.14;77.95
53526;BME280;40551;50.478;19.378;2023-07-28T00:10:45;97214.66;;;15.13;77.55
53526;BME280;40551;50.478;19.378;2023-07-28T00:13:17;97214.30;;;15.13;77.50
53526;BME280;40551;50.478;19.378;2023-07-28T00:15:51;97212.98;;;15.14;77.72
53526;BME280;40551;50.478;19.378;2023-07-28T00:18:24;97209.95;;;15.13;77.73
53526;BME280;40551;50.478;19.378;2023-07-28T00:20:59;97213.99;;;15.14;77.45
53526;BME280;40551;50.478;19.378;2023-07-28T00:23:32;97213.08;;;15.14;77.54
53526;BME280;40551;50.478;19.378;2023-07-28T00:26:08;97212.73;;;15.13;77.67
53526;BME280;40551;50.478;19.378;2023-07-28T00:28:42;97210.63;;;15.10;77.69
53526;BME280;40551;50.478;19.378;2023-07-28T00:31:15;97206.91;;;15.08;77.67
53526;BME280;40551;50.478;19.378;2023-07-28T00:33:50;97206.73;;;15.07;77.68
53526;BME280;40551;50.478;19.378;2023-07-28T00:36:24;97204.90;;;15.06;77.79
53526;BME280;40551;50.478;19.378;2023-07-28T00:38:58;97203.13;;;15.07;78.02
53526;BME280;40551;50.478;19.378;2023-07-28T00:41:33;97203.02;;;15.05;78.18
53526;BME280;40551;50.478;19.378;2023-07-28T00:44:06;97201.34;;;15.02;78.10
53526;BME280;40551;50.478;19.378;2023-07-28T00:46:42;97194.80;;;15.02;78.46
53526;BME280;40551;50.478;19.378;2023-07-28T00:49:16;97191.27;;;15.01;78.67
53526;BME280;40551;50.478;19.378;2023-07-28T00:51:52;97185.73;;;15.00;79.04
53526;BME280;40551;50.478;19.378;2023-07-28T00:54:26;97190.52;;;15.01;78.38
53526;BME280;40551;50.478;19.378;2023-07-28T00:57:01;97181.09;;;15.01;78.77
53526;BME280;40551;50.478;19.378;2023-07-28T00:59:36;97177.75;;;15.01;79.00
53526;BME280;40551;50.478;19.378;2023-07-28T01:02:11;97174.29;;;15.02;79.12
53526;BME280;40551;50.478;19.378;2023-07-28T01:04:44;97175.20;;;15.01;79.23
53526;BME280;40551;50.478;19.378;2023-07-28T01:07:24;97169.70;;;14.98;79.27
53526;BME280;40551;50.478;19.378;2023-07-28T01:10:05;97172.54;;;14.95;79.44
53526;BME280;40551;50.478;19.378;2023-07-28T01:12:41;97175.14;;;14.94;79.66
53526;BME280;40551;50.478;19.378;2023-07-28T01:15:16;97172.23;;;14.95;79.40
53526;BME280;40551;50.478;19.378;2023-07-28T01:17:49;97165.17;;;14.97;78.65
53526;BME280;40551;50.478;19.378;2023-07-28T01:20:28;97158.09;;;14.99;78.93
53526;BME280;40551;50.478;19.378;2023-07-28T01:23:14;97157.25;;;15.00;78.77
53526;BME280;40551;50.478;19.378;2023-07-28T01:26:02;97160.74;;;15.02;77.99
53526;BME280;40551;50.478;19.378;2023-07-28T01:28:40;97165.77;;;15.05;77.87
53526;BME280;40551;50.478;19.378;2023-07-28T01:31:15;97166.98;;;15.08;78.02
53526;BME280;40551;50.478;19.378;2023-07-28T01:33:49;97162.08;;;15.08;77.99
53526;BME280;40551;50.478;19.378;2023-07-28T01:36:23;97164.89;;;15.11;77.35
53526;BME280;40551;50.478;19.378;2023-07-28T01:38:58;97159.63;;;15.14;77.03
53526;BME280;40551;50.478;19.378;2023-07-28T01:41:32;97158.02;;;15.17;76.93
53526;BME280;40551;50.478;19.378;2023-07-28T01:44:07;97153.42;;;15.21;76.58
53526;BME280;40551;50.478;19.378;2023-07-28T01:46:41;97147.17;;;15.23;76.84
53526;BME280;40551;50.478;19.378;2023-07-28T01:49:16;97140.88;;;15.24;76.36
53526;BME280;40551;50.478;19.378;2023-07-28T01:51:50;97146.69;;;15.27;76.55
53526;BME280;40551;50.478;19.378;2023-07-28T01:54:24;97143.48;;;15.28;76.41
53526;BME280;40551;50.478;19.378;2023-07-28T01:56:58;97149.77;;;15.29;76.17
53526;BME280;40551;50.478;19.378;2023-07-28T01:59:33;97148.88;;;15.31;76.18
53526;BME280;40551;50.478;19.378;2023-07-28T02:02:08;97139.77;;;15.31;76.07
53526;BME280;40551;50.478;19.378;2023-07-28T02:04:43;97138.75;;;15.37;75.71
53526;BME280;40551;50.478;19.378;2023-07-28T02:07:18;97138.00;;;15.42;75.82
53526;BME280;40551;50.478;19.378;2023-07-28T02:09:56;97140.11;;;15.46;75.79
53526;BME280;40551;50.478;19.378;2023-07-28T02:12:30;97136.16;;;15.50;76.12
53526;BME280;40551;50.478;19.378;2023-07-28T02:15:05;97134.67;;;15.54;76.03
53526;BME280;40551;50.478;19.378;2023-07-28T02:17:41;97135.35;;;15.57;76.04
53526;BME280;40551;50.478;19.378;2023-07-28T02:20:16;97139.23;;;15.61;76.11
53526;BME280;40551;50.478;19.378;2023-07-28T02:22:51;97140.29;;;15.62;76.07
53526;BME280;40551;50.478;19.378;2023-07-28T02:25:26;97145.67;;;15.64;76.08
53526;BME280;40551;50.478;19.378;2023-07-28T02:28:00;97142.17;;;15.65;76.00
53526;BME280;40551;50.478;19.378;2023-07-28T02:30:34;97137.52;;;15.66;76.16
53526;BME280;40551;50.478;19.378;2023-07-28T02:33:10;97139.85;;;15.69;76.17
53526;BME280;40551;50.478;19.378;2023-07-28T02:35:43;97142.06;;;15.69;76.20
53526;BME280;40551;50.478;19.378;2023-07-28T02:38:17;97138.52;;;15.70;76.17
53526;BME280;40551;50.478;19.378;2023-07-28T02:40:52;97133.81;;;15.71;76.20
53526;BME280;40551;50.478;19.378;2023-07-28T02:43:26;97136.59;;;15.74;76.08
53526;BME280;40551;50.478;19.378;2023-07-28T02:46:00;97128.54;;;15.75;76.13
53526;BME280;40551;50.478;19.378;2023-07-28T02:48:34;97128.88;;;15.78;75.92
53526;BME280;40551;50.478;19.378;2023-07-28T02:51:07;97126.68;;;15.80;75.98
53526;BME280;40551;50.478;19.378;2023-07-28T02:53:41;97124.52;;;15.82;76.09
53526;BME280;40551;50.478;19.378;2023-07-28T02:56:14;97123.02;;;15.82;76.04
53526;BME280;40551;50.478;19.378;2023-07-28T02:58:48;97118.33;;;15.84;75.92
53526;BME280;40551;50.478;19.378;2023-07-28T03:01:23;97120.70;;;15.86;75.77
53526;BME280;40551;50.478;19.378;2023-07-28T03:03:57;97119.80;;;15.87;76.02
53526;BME280;40551;50.478;19.378;2023-07-28T03:06:31;97123.45;;;15.87;76.18
53526;BME280;40551;50.478;19.378;2023-07-28T03:09:06;97119.05;;;15.88;76.37
53526;BME280;40551;50.478;19.378;2023-07-28T03:11:51;97115.20;;;15.88;76.18
53526;BME280;40551;50.478;19.378;2023-07-28T03:14:24;97108.25;;;15.89;76.53
53526;BME280;40551;50.478;19.378;2023-07-28T03:16:57;97106.52;;;15.90;76.31
53526;BME280;40551;50.478;19.378;2023-07-28T03:19:31;97100.23;;;15.91;76.46
53526;BME280;40551;50.478;19.378;2023-07-28T03:22:05;97098.83;;;15.93;76.69
53526;BME280;40551;50.478;19.378;2023-07-28T03:24:39;97098.64;;;15.93;76.82
53526;BME280;40551;50.478;19.378;2023-07-28T03:27:14;97093.55;;;15.92;77.26
53526;BME280;40551;50.478;19.378;2023-07-28T03:29:47;97094.79;;;15.92;77.30
53526;BME280;40551;50.478;19.378;2023-07-28T03:32:23;97091.08;;;15.91;77.62
53526;BME280;40551;50.478;19.378;2023-07-28T03:34:58;97090.55;;;15.90;77.85
53526;BME280;40551;50.478;19.378;2023-07-28T03:37:32;97088.77;;;15.89;77.87
53526;BME280;40551;50.478;19.378;2023-07-28T03:40:07;97085.98;;;15.89;78.18
53526;BME280;40551;50.478;19.378;2023-07-28T03:42:49;97084.20;;;15.88;78.18
53526;BME280;40551;50.478;19.378;2023-07-28T03:45:23;97088.66;;;15.87;78.27
53526;BME280;40551;50.478;19.378;2023-07-28T03:47:58;97090.73;;;15.88;78.39
53526;BME280;40551;50.478;19.378;2023-07-28T03:50:32;97090.73;;;15.88;78.51
53526;BME280;40551;50.478;19.378;2023-07-28T03:53:07;97086.70;;;15.88;78.74
53526;BME280;40551;50.478;19.378;2023-07-28T03:55:40;97084.55;;;15.88;78.41
53526;BME280;40551;50.478;19.378;2023-07-28T03:58:14;97079.88;;;15.89;78.09
53526;BME280;40551;50.478;19.378;2023-07-28T04:00:48;97084.16;;;15.90;78.25
53526;BME280;40551;50.478;19.378;2023-07-28T04:03:22;97080.52;;;15.89;78.29
53526;BME280;40551;50.478;19.378;2023-07-28T04:05:56;97075.27;;;15.89;78.03
53526;BME280;40551;50.478;19.378;2023-07-28T04:08:29;97079.33;;;15.89;77.79
53526;BME280;40551;50.478;19.378;2023-07-28T04:11:02;97077.46;;;15.90;77.51
53526;BME280;40551;50.478;19.378;2023-07-28T04:13:38;97076.38;;;15.89;77.46
53526;BME280;40551;50.478;19.378;2023-07-28T04:16:13;97080.06;;;15.91;77.44
53526;BME280;40551;50.478;19.378;2023-07-28T04:18:50;97081.90;;;15.94;77.41
53526;BME280;40551;50.478;19.378;2023-07-28T04:21:23;97075.04;;;15.97;77.42
53526;BME280;40551;50.478;19.378;2023-07-28T04:23:56;97072.98;;;15.98;77.30
53526;BME280;40551;50.478;19.378;2023-07-28T04:26:30;97068.88;;;15.99;76.88
53526;BME280;40551;50.478;19.378;2023-07-28T04:29:06;97061.40;;;16.00;76.83
53526;BME280;40551;50.478;19.378;2023-07-28T04:31:41;97064.20;;;16.00;76.72
53526;BME280;40551;50.478;19.378;2023-07-28T04:34:17;97069.15;;;16.03;76.60
53526;BME280;40551;50.478;19.378;2023-07-28T04:37:06;97064.48;;;16.05;76.16
53526;BME280;40551;50.478;19.378;2023-07-28T04:39:50;97058.02;;;16.08;76.26
53526;BME280;40551;50.478;19.378;2023-07-28T04:42:23;97057.91;;;16.10;75.93
53526;BME280;40551;50.478;19.378;2023-07-28T04:44:56;97062.39;;;16.12;75.86
53526;BME280;40551;50.478;19.378;2023-07-28T04:47:31;97064.36;;;16.13;75.58
53526;BME280;40551;50.478;19.378;2023-07-28T04:50:06;97056.38;;;16.15;75.55
53526;BME280;40551;50.478;19.378;2023-07-28T04:53:08;97059.59;;;16.19;74.76
53526;BME280;40551;50.478;19.378;2023-07-28T04:56:06;97056.44;;;16.24;75.45
53526;BME280;40551;50.478;19.378;2023-07-28T04:58:42;97055.30;;;16.25;75.31
53526;BME280;40551;50.478;19.378;2023-07-28T05:01:17;97055.75;;;16.29;74.80
53526;BME280;40551;50.478;19.378;2023-07-28T05:03:53;97058.59;;;16.33;75.18
53526;BME280;40551;50.478;19.378;2023-07-28T05:06:29;97051.92;;;16.37;74.94
53526;BME280;40551;50.478;19.378;2023-07-28T05:09:02;97052.23;;;16.40;74.95
53526;BME280;40551;50.478;19.378;2023-07-28T05:11:38;97048.09;;;16.42;74.81
53526;BME280;40551;50.478;19.378;2023-07-28T05:14:13;97050.16;;;16.44;74.86
53526;BME280;40551;50.478;19.378;2023-07-28T05:16:46;97044.20;;;16.47;74.61
53526;BME280;40551;50.478;19.378;2023-07-28T05:19:26;97037.55;;;16.50;74.55
53526;BME280;40551;50.478;19.378;2023-07-28T05:22:06;97037.85;;;16.52;74.27
53526;BME280;40551;50.478;19.378;2023-07-28T05:24:54;97037.42;;;16.54;74.11
53526;BME280;40551;50.478;19.378;2023-07-28T05:27:31;97037.23;;;16.54;73.94
53526;BME280;40551;50.478;19.378;2023-07-28T05:30:06;97033.21;;;16.55;73.74
53526;BME280;40551;50.478;19.378;2023-07-28T05:32:40;97030.80;;;16.56;73.63
53526;BME280;40551;50.478;19.378;2023-07-28T05:35:58;97031.10;;;16.58;73.98
53526;BME280;40551;50.478;19.378;2023-07-28T05:38:36;97029.83;;;16.60;73.76
53526;BME280;40551;50.478;19.378;2023-07-28T05:41:10;97031.17;;;16.63;74.00
53526;BME280;40551;50.478;19.378;2023-07-28T05:43:44;97034.41;;;16.67;74.28
53526;BME280;40551;50.478;19.378;2023-07-28T05:46:21;97032.42;;;16.70;74.35
53526;BME280;40551;50.478;19.378;2023-07-28T05:48:59;97029.85;;;16.73;74.33
53526;BME280;40551;50.478;19.378;2023-07-28T05:51:34;97021.59;;;16.76;74.41
53526;BME280;40551;50.478;19.378;2023-07-28T05:54:07;97024.09;;;16.80;74.58
53526;BME280;40551;50.478;19.378;2023-07-28T05:56:41;97037.80;;;16.83;74.58
53526;BME280;40551;50.478;19.378;2023-07-28T05:59:16;97038.39;;;16.86;74.74
53526;BME280;40551;50.478;19.378;2023-07-28T06:01:49;97045.13;;;16.91;74.74
53526;BME280;40551;50.478;19.378;2023-07-28T06:04:45;97047.98;;;16.96;74.66
53526;BME280;40551;50.478;19.378;2023-07-28T06:07:18;97049.17;;;17.01;74.69
53526;BME280;40551;50.478;19.378;2023-07-28T06:09:52;97050.33;;;17.03;74.94
53526;BME280;40551;50.478;19.378;2023-07-28T06:12:26;97049.54;;;17.05;74.72
53526;BME280;40551;50.478;19.378;2023-07-28T06:15:00;97049.60;;;17.06;74.92
53526;BME280;40551;50.478;19.378;2023-07-28T06:17:33;97047.98;;;17.06;74.33
53526;BME280;40551;50.478;19.378;2023-07-28T06:20:10;97047.05;;;17.05;74.51
53526;BME280;40551;50.478;19.378;2023-07-28T06:22:44;97048.01;;;17.04;74.48
53526;BME280;40551;50.478;19.378;2023-07-28T06:25:18;97047.16;;;17.03;74.61
53526;BME280;40551;50.478;19.378;2023-07-28T06:27:52;97049.85;;;17.01;74.84
53526;BME280;40551;50.478;19.378;2023-07-28T06:30:28;97056.23;;;16.98;75.09
53526;BME280;40551;50.478;19.378;2023-07-28T06:33:03;97058.52;;;16.96;75.24
53526;BME280;40551;50.478;19.378;2023-07-28T06:35:36;97060.10;;;16.96;75.52
53526;BME280;40551;50.478;19.378;2023-07-28T06:38:11;97063.38;;;16.95;75.51
53526;BME280;40551;50.478;19.378;2023-07-28T06:40:45;97066.68;;;16.94;75.48
53526;BME280;40551;50.478;19.378;2023-07-28T06:43:19;97069.95;;;16.92;75.47
53526;BME280;40551;50.478;19.378;2023-07-28T06:45:54;97072.39;;;16.92;75.76
53526;BME280;40551;50.478;19.378;2023-07-28T06:48:27;97073.27;;;16.92;75.75
53526;BME280;40551;50.478;19.378;2023-07-28T06:51:05;97076.90;;;16.92;75.79
53526;BME280;40551;50.478;19.378;2023-07-28T06:53:39;97080.66;;;16.93;75.99
53526;BME280;40551;50.478;19.378;2023-07-28T06:56:13;97085.53;;;16.96;76.09
53526;BME280;40551;50.478;19.378;2023-07-28T06:58:49;97084.98;;;16.97;75.89
53526;BME280;40551;50.478;19.378;2023-07-28T07:01:42;97091.11;;;16.97;76.18
53526;BME280;40551;50.478;19.378;2023-07-28T07:04:18;97094.13;;;16.93;76.45
53526;BME280;40551;50.478;19.378;2023-07-28T07:06:54;97092.58;;;16.90;76.68
53526;BME280;40551;50.478;19.378;2023-07-28T07:09:28;97092.15;;;16.86;76.66
53526;BME280;40551;50.478;19.378;2023-07-28T07:12:02;97092.45;;;16.83;76.85
53526;BME280;40551;50.478;19.378;2023-07-28T07:14:36;97088.77;;;16.80;77.07
53526;BME280;40551;50.478;19.378;2023-07-28T07:17:10;97091.02;;;16.79;77.66
53526;BME280;40551;50.478;19.378;2023-07-28T07:19:43;97094.61;;;16.79;77.89
53526;BME280;40551;50.478;19.378;2023-07-28T07:22:17;97097.44;;;16.79;78.21
53526;BME280;40551;50.478;19.378;2023-07-28T07:24:51;97098.99;;;16.81;78.36
53526;BME280;40551;50.478;19.378;2023-07-28T07:27:27;97101.30;;;16.81;78.46
53526;BME280;40551;50.478;19.378;2023-07-28T07:30:02;97104.11;;;16.79;78.94
53526;BME280;40551;50.478;19.378;2023-07-28T07:32:37;97106.52;;;16.75;78.84
53526;BME280;40551;50.478;19.378;2023-07-28T07:35:14;97108.13;;;16.74;79.40
53526;BME280;40551;50.478;19.378;2023-07-28T07:37:48;97112.92;;;16.73;79.68
53526;BME280;40551;50.478;19.378;2023-07-28T07:40:21;97112.44;;;16.71;79.83
53526;BME280;40551;50.478;19.378;2023-07-28T07:42:57;97115.34;;;16.70;80.14
53526;BME280;40551;50.478;19.378;2023-07-28T07:45:31;97118.52;;;16.68;80.62
53526;BME280;40551;50.478;19.378;2023-07-28T07:48:06;97118.63;;;16.67;81.14
53526;BME280;40551;50.478;19.378;2023-07-28T07:50:40;97118.73;;;16.63;81.51
53526;BME280;40551;50.478;19.378;2023-07-28T07:53:15;97121.16;;;16.58;81.92
53526;BME280;40551;50.478;19.378;2023-07-28T07:55:48;97124.34;;;16.53;82.62
53526;BME280;40551;50.478;19.378;2023-07-28T07:58:23;97125.05;;;16.49;82.85
53526;BME280;40551;50.478;19.378;2023-07-28T08:00:57;97128.02;;;16.46;83.45
53526;BME280;40551;50.478;19.378;2023-07-28T08:03:30;97127.63;;;16.43;83.78
53526;BME280;40551;50.478;19.378;2023-07-28T08:06:05;97124.86;;;16.41;83.91
53526;BME280;40551;50.478;19.378;2023-07-28T08:08:38;97127.20;;;16.41;84.37
53526;BME280;40551;50.478;19.378;2023-07-28T08:11:15;97124.77;;;16.39;84.48
53526;BME280;40551;50.478;19.378;2023-07-28T08:13:49;97127.23;;;16.39;84.75
53526;BME280;40551;50.478;19.378;2023-07-28T08:16:22;97127.70;;;16.37;85.05
53526;BME280;40551;50.478;19.378;2023-07-28T08:18:56;97128.41;;;16.41;85.43
53526;BME280;40551;50.478;19.378;2023-07-28T08:21:31;97129.45;;;16.40;85.68
53526;BME280;40551;50.478;19.378;2023-07-28T08:24:08;97130.26;;;16.38;85.90
53526;BME280;40551;50.478;19.378;2023-07-28T08:26:41;97131.83;;;16.38;86.28
53526;BME280;40551;50.478;19.378;2023-07-28T08:29:14;97132.31;;;16.38;86.51
53526;BME280;40551;50.478;19.378;2023-07-28T08:31:50;97132.84;;;16.39;86.83
53526;BME280;40551;50.478;19.378;2023-07-28T08:34:28;97133.46;;;16.41;87.18
53526;BME280;40551;50.478;19.378;2023-07-28T08:37:03;97135.81;;;16.45;87.66
53526;BME280;40551;50.478;19.378;2023-07-28T08:39:37;97138.34;;;16.49;87.53
53526;BME280;40551;50.478;19.378;2023-07-28T08:42:11;97129.64;;;16.51;87.82
53526;BME280;40551;50.478;19.378;2023-07-28T08:44:45;97128.80;;;16.54;87.84
53526;BME280;40551;50.478;19.378;2023-07-28T08:47:20;97126.28;;;16.58;88.14
53526;BME280;40551;50.478;19.378;2023-07-28T08:49:53;97126.19;;;16.66;88.31
53526;BME280;40551;50.478;19.378;2023-07-28T08:52:27;97128.61;;;16.74;88.55
53526;BME280;40551;50.478;19.378;2023-07-28T08:55:00;97127.36;;;16.82;88.77
53526;BME280;40551;50.478;19.378;2023-07-28T08:57:34;97125.83;;;16.89;88.82
53526;BME280;40551;50.478;19.378;2023-07-28T09:00:14;97128.45;;;16.95;88.76
53526;BME280;40551;50.478;19.378;2023-07-28T09:02:50;97127.73;;;17.02;88.90
53526;BME280;40551;50.478;19.378;2023-07-28T09:05:23;97129.43;;;17.05;88.98
53526;BME280;40551;50.478;19.378;2023-07-28T09:07:59;97127.89;;;17.08;88.89
53526;BME280;40551;50.478;19.378;2023-07-28T09:10:46;97130.45;;;17.13;88.69
53526;BME280;40551;50.478;19.378;2023-07-28T09:13:20;97128.52;;;17.18;88.84
53526;BME280;40551;50.478;19.378;2023-07-28T09:15:53;97131.34;;;17.21;88.78
53526;BME280;40551;50.478;19.378;2023-07-28T09:18:27;97127.85;;;17.26;88.88
53526;BME280;40551;50.478;19.378;2023-07-28T09:21:00;97130.51;;;17.32;89.20
53526;BME280;40551;50.478;19.378;2023-07-28T09:23:33;97132.45;;;17.42;89.43
53526;BME280;40551;50.478;19.378;2023-07-28T09:26:07;97119.58;;;17.49;89.77
53526;BME280;40551;50.478;19.378;2023-07-28T09:28:41;97122.52;;;17.58;89.04
53526;BME280;40551;50.478;19.378;2023-07-28T09:31:15;97122.70;;;17.66;89.08
53526;BME280;40551;50.478;19.378;2023-07-28T09:33:49;97121.71;;;17.72;89.08
53526;BME280;40551;50.478;19.378;2023-07-28T09:36:23;97122.30;;;17.76;89.02
53526;BME280;40551;50.478;19.378;2023-07-28T09:38:58;97122.69;;;17.81;89.19
53526;BME280;40551;50.478;19.378;2023-07-28T09:41:33;97114.25;;;17.87;88.87
53526;BME280;40551;50.478;19.378;2023-07-28T09:44:08;97123.73;;;17.93;89.16
53526;BME280;40551;50.478;19.378;2023-07-28T09:46:51;97122.58;;;18.00;88.94
53526;BME280;40551;50.478;19.378;2023-07-28T09:49:32;97122.55;;;18.11;89.64
53526;BME280;40551;50.478;19.378;2023-07-28T09:52:10;97124.13;;;18.23;89.62
53526;BME280;40551;50.478;19.378;2023-07-28T09:54:45;97125.61;;;18.34;89.54
53526;BME280;40551;50.478;19.378;2023-07-28T09:57:25;97128.39;;;18.42;88.83
53526;BME280;40551;50.478;19.378;2023-07-28T10:00:01;97123.13;;;18.46;88.65
53526;BME280;40551;50.478;19.378;2023-07-28T10:02:42;97117.95;;;18.50;88.23
53526;BME280;40551;50.478;19.378;2023-07-28T10:05:17;97115.52;;;18.55;88.42
53526;BME280;40551;50.478;19.378;2023-07-28T10:07:51;97120.86;;;18.62;88.20
53526;BME280;40551;50.478;19.378;2023-07-28T10:10:25;97116.71;;;18.67;88.10
53526;BME280;40551;50.478;19.378;2023-07-28T10:13:00;97121.38;;;18.71;87.77
53526;BME280;40551;50.478;19.378;2023-07-28T10:15:35;97121.17;;;18.73;87.72
53526;BME280;40551;50.478;19.378;2023-07-28T10:18:12;97124.67;;;18.79;87.54
53526;BME280;40551;50.478;19.378;2023-07-28T10:20:45;97127.54;;;18.84;87.38
53526;BME280;40551;50.478;19.378;2023-07-28T10:23:24;97128.07;;;18.90;87.18
53526;BME280;40551;50.478;19.378;2023-07-28T10:26:00;97127.33;;;18.94;87.01
53526;BME280;40551;50.478;19.378;2023-07-28T10:28:38;97124.93;;;18.96;86.44
53526;BME280;40551;50.478;19.378;2023-07-28T10:31:12;97122.24;;;18.98;86.15
53526;BME280;40551;50.478;19.378;2023-07-28T10:33:48;97127.84;;;19.01;86.38
53526;BME280;40551;50.478;19.378;2023-07-28T10:36:34;97134.23;;;19.04;85.81
53526;BME280;40551;50.478;19.378;2023-07-28T10:39:16;97139.28;;;19.15;86.73
53526;BME280;40551;50.478;19.378;2023-07-28T10:42:06;97135.15;;;19.28;86.13
53526;BME280;40551;50.478;19.378;2023-07-28T10:44:40;97132.16;;;19.36;84.74
53526;BME280;40551;50.478;19.378;2023-07-28T10:47:15;97131.05;;;19.41;85.09
53526;BME280;40551;50.478;19.378;2023-07-28T10:49:50;97130.20;;;19.48;84.93
53526;BME280;40551;50.478;19.378;2023-07-28T10:52:25;97131.02;;;19.54;84.15
53526;BME280;40551;50.478;19.378;2023-07-28T10:54:59;97131.16;;;19.62;84.39
53526;BME280;40551;50.478;19.378;2023-07-28T10:57:33;97132.86;;;19.70;84.91
53526;BME280;40551;50.478;19.378;2023-07-28T11:00:15;97131.95;;;19.74;84.25
53526;BME280;40551;50.478;19.378;2023-07-28T11:02:51;97128.44;;;19.77;84.03
53526;BME280;40551;50.478;19.378;2023-07-28T11:05:27;97131.74;;;19.81;83.49
53526;BME280;40551;50.478;19.378;2023-07-28T11:08:02;97138.39;;;19.77;82.52
53526;BME280;40551;50.478;19.378;2023-07-28T11:10:38;97132.61;;;19.72;82.24
53526;BME280;40551;50.478;19.378;2023-07-28T11:13:11;97139.24;;;19.67;82.37
53526;BME280;40551;50.478;19.378;2023-07-28T11:16:06;97137.41;;;19.66;82.48
53526;BME280;40551;50.478;19.378;2023-07-28T11:18:42;97135.54;;;19.70;82.79
53526;BME280;40551;50.478;19.378;2023-07-28T11:21:23;97139.83;;;19.81;83.16
53526;BME280;40551;50.478;19.378;2023-07-28T11:23:56;97139.24;;;19.96;82.93
53526;BME280;40551;50.478;19.378;2023-07-28T11:26:30;97137.25;;;20.10;82.56
53526;BME280;40551;50.478;19.378;2023-07-28T11:29:05;97137.46;;;20.22;82.30
53526;BME280;40551;50.478;19.378;2023-07-28T11:31:38;97144.58;;;20.28;81.60
53526;BME280;40551;50.478;19.378;2023-07-28T11:34:17;97142.28;;;20.31;81.68
53526;BME280;40551;50.478;19.378;2023-07-28T11:36:51;97139.70;;;20.34;80.94
53526;BME280;40551;50.478;19.378;2023-07-28T11:39:25;97144.05;;;20.39;80.71
53526;BME280;40551;50.478;19.378;2023-07-28T11:41:59;97140.29;;;20.46;80.46
53526;BME280;40551;50.478;19.378;2023-07-28T11:44:32;97145.10;;;20.57;81.66
53526;BME280;40551;50.478;19.378;2023-07-28T11:47:10;97145.67;;;20.68;81.23
53526;BME280;40551;50.478;19.378;2023-07-28T11:49:49;97145.97;;;20.80;80.89
53526;BME280;40551;50.478;19.378;2023-07-28T11:52:23;97150.64;;;20.87;80.01
53526;BME280;40551;50.478;19.378;2023-07-28T11:54:59;97152.69;;;20.92;80.51
53526;BME280;40551;50.478;19.378;2023-07-28T11:57:34;97154.94;;;20.95;79.59
53526;BME280;40551;50.478;19.378;2023-07-28T12:00:12;97158.17;;;20.94;79.12
53526;BME280;40551;50.478;19.378;2023-07-28T12:02:48;97151.94;;;20.95;78.69
53526;BME280;40551;50.478;19.378;2023-07-28T12:05:22;97143.31;;;21.02;78.83
53526;BME280;40551;50.478;19.378;2023-07-28T12:07:57;97137.16;;;21.16;79.01
53526;BME280;40551;50.478;19.378;2023-07-28T12:10:32;97131.91;;;21.34;78.75
53526;BME280;40551;50.478;19.378;2023-07-28T12:13:09;97132.52;;;21.47;78.27
53526;BME280;40551;50.478;19.378;2023-07-28T12:15:45;97137.91;;;21.66;77.75
53526;BME280;40551;50.478;19.378;2023-07-28T12:18:22;97133.37;;;21.72;77.41
53526;BME280;40551;50.478;19.378;2023-07-28T12:21:06;97136.55;;;21.79;77.28
53526;BME280;40551;50.478;19.378;2023-07-28T12:23:39;97130.86;;;21.83;76.55
53526;BME280;40551;50.478;19.378;2023-07-28T12:26:15;97131.06;;;21.87;75.86
53526;BME280;40551;50.478;19.378;2023-07-28T12:28:48;97132.21;;;21.88;75.56
53526;BME280;40551;50.478;19.378;2023-07-28T12:31:24;97134.11;;;21.90;76.19
53526;BME280;40551;50.478;19.378;2023-07-28T12:33:59;97132.48;;;21.99;76.08
53526;BME280;40551;50.478;19.378;2023-07-28T12:36:35;97130.08;;;22.11;76.08
53526;BME280;40551;50.478;19.378;2023-07-28T12:39:12;97133.27;;;22.23;75.60
53526;BME280;40551;50.478;19.378;2023-07-28T12:41:48;97130.91;;;22.35;74.96
53526;BME280;40551;50.478;19.378;2023-07-28T12:44:42;97128.91;;;22.51;75.50
53526;BME280;40551;50.478;19.378;2023-07-28T12:47:20;97129.92;;;22.59;74.55
53526;BME280;40551;50.478;19.378;2023-07-28T12:49:55;97127.86;;;22.70;74.06
53526;BME280;40551;50.478;19.378;2023-07-28T12:52:28;97128.14;;;22.87;74.69
53526;BME280;40551;50.478;19.378;2023-07-28T12:55:21;97127.30;;;22.94;74.39
53526;BME280;40551;50.478;19.378;2023-07-28T12:57:55;97122.40;;;22.88;73.34
53526;BME280;40551;50.478;19.378;2023-07-28T13:00:30;97116.23;;;22.80;72.73
53526;BME280;40551;50.478;19.378;2023-07-28T13:03:06;97116.43;;;22.73;72.93
53526;BME280;40551;50.478;19.378;2023-07-28T13:05:40;97115.17;;;22.72;72.96
53526;BME280;40551;50.478;19.378;2023-07-28T13:08:15;97119.48;;;22.69;72.85
53526;BME280;40551;50.478;19.378;2023-07-28T13:10:50;97124.09;;;22.73;74.13
53526;BME280;40551;50.478;19.378;2023-07-28T13:13:28;97125.69;;;22.74;73.09
53526;BME280;40551;50.478;19.378;2023-07-28T13:16:01;97130.77;;;22.69;73.05
53526;BME280;40551;50.478;19.378;2023-07-28T13:18:35;97129.33;;;22.69;73.20
53526;BME280;40551;50.478;19.378;2023-07-28T13:21:08;97132.77;;;22.67;73.15
53526;BME280;40551;50.478;19.378;2023-07-28T13:23:42;97135.95;;;22.66;72.77
53526;BME280;40551;50.478;19.378;2023-07-28T13:26:16;97139.30;;;22.71;71.91
53526;BME280;40551;50.478;19.378;2023-07-28T13:28:50;97138.02;;;22.71;72.31
53526;BME280;40551;50.478;19.378;2023-07-28T13:31:23;97138.67;;;22.72;71.90
53526;BME280;40551;50.478;19.378;2023-07-28T13:33:55;97137.77;;;22.67;72.20
53526;BME280;40551;50.478;19.378;2023-07-28T13:36:29;97127.92;;;22.61;71.92